Time;durP1;ratioP1;P1;durP2;ratioP2;P2;SDS_P1;SDS_P2;PMS_P1;PMS_P2;Temp;Humidity;BMP_temperature;BMP_pressure;BME280_temperature;BME280_humidity;BME280_pressure;Samples;Min_cycle;Max_cycle;Signal;HPM_P1;HPM_P2
2023/10/01 00:01:33;;;;;;;;;13.25;11.50;;;;;18.69;59.97;101847.59;5108632;27;45253;-68
2023/10/01 00:03:58;;;;;;;;;18.75;13.50;;;;;18.66;59.99;101845.09;5092400;27;45428;-67
2023/10/01 00:06:24;;;;;;;;;16.00;12.00;;;;;18.66;60.34;101846.84;5112266;27;45615;-67
2023/10/01 00:08:50;;;;;;;;;18.75;13.75;;;;;18.64;60.20;101846.91;5085307;27;47624;-68
2023/10/01 00:11:15;;;;;;;;;16.25;12.00;;;;;18.63;60.75;101853.16;5099146;27;65744;-67
2023/10/01 00:13:41;;;;;;;;;18.25;12.25;;;;;18.61;60.27;101847.06;5120189;27;45678;-67
2023/10/01 00:16:06;;;;;;;;;11.25;9.00;;;;;18.59;60.52;101849.78;5106597;27;45471;-68
2023/10/01 00:18:32;;;;;;;;;14.00;13.25;;;;;18.62;60.77;101855.88;5088793;27;45654;-68
2023/10/01 00:20:57;;;;;;;;;19.00;14.00;;;;;18.59;60.40;101851.56;5109008;27;45912;-68
2023/10/01 00:23:22;;;;;;;;;19.25;11.00;;;;;18.58;60.72;101853.34;5119797;27;45455;-68
2023/10/01 00:25:48;;;;;;;;;21.50;13.00;;;;;18.59;60.54;101855.09;5115651;27;53606;-67
2023/10/01 00:28:14;;;;;;;;;20.00;14.00;;;;;18.57;60.68;101854.31;5100648;27;65996;-67
2023/10/01 00:30:39;;;;;;;;;17.50;13.00;;;;;18.57;60.64;101858.72;5114799;27;45726;-67
2023/10/01 00:33:06;;;;;;;;;15.25;12.00;;;;;18.56;60.70;101849.06;5122188;27;45431;-67
2023/10/01 00:35:31;;;;;;;;;15.00;12.50;;;;;18.54;60.89;101854.41;5120892;27;45393;-68
2023/10/01 00:37:56;;;;;;;;;16.00;11.75;;;;;18.52;60.91;101853.63;5118928;27;45354;-68
2023/10/01 00:40:22;;;;;;;;;20.00;13.00;;;;;18.50;61.29;101852.84;5113118;27;62002;-68
2023/10/01 00:42:48;;;;;;;;;13.75;13.00;;;;;18.47;61.14;101850.31;5116336;27;45415;-67
2023/10/01 00:45:16;;;;;;;;;22.00;14.75;;;;;18.44;61.20;101841.63;5115413;27;45155;-67
2023/10/01 00:47:43;;;;;;;;;17.50;13.00;;;;;18.44;61.34;101838.97;5123068;27;46446;-67
2023/10/01 00:50:15;;;;;;;;;16.50;13.00;;;;;18.42;61.85;101841.69;5121708;27;45386;-67
2023/10/01 00:52:41;;;;;;;;;13.25;10.00;;;;;18.39;61.48;101839.16;5108970;27;45375;-68
2023/10/01 00:55:11;;;;;;;;;12.00;12.00;;;;;18.35;61.99;101835.78;5107180;27;46446;-67
2023/10/01 00:57:37;;;;;;;;;17.50;9.50;;;;;18.34;61.52;101833.19;5110916;27;45570;-67
2023/10/01 01:00:15;;;;;;;;;18.50;11.50;;;;;18.33;61.97;101834.13;5116258;27;45965;-67
2023/10/01 01:02:55;;;;;;;;;12.00;11.25;;;;;18.29;61.90;101820.16;5105089;27;45497;-67
2023/10/01 01:05:23;;;;;;;;;14.00;11.00;;;;;18.29;61.76;101827.22;5107221;27;45389;-67
2023/10/01 01:07:48;;;;;;;;;15.00;11.50;;;;;18.27;61.82;101823.78;5122819;27;46266;-67
2023/10/01 01:10:18;;;;;;;;;17.25;12.75;;;;;18.23;61.96;101817.75;5117526;27;45454;-68
2023/10/01 01:12:45;;;;;;;;;12.00;10.25;;;;;18.24;62.02;101829.19;5102576;27;46120;-67
2023/10/01 01:15:13;;;;;;;;;17.75;12.25;;;;;18.21;61.84;101819.59;5122504;27;45228;-67
2023/10/01 01:17:40;;;;;;;;;16.25;11.75;;;;;18.18;62.26;101820.59;5122162;27;45388;-67
2023/10/01 01:20:09;;;;;;;;;14.75;11.00;;;;;18.18;62.38;101822.38;5118916;27;45312;-67
2023/10/01 01:22:37;;;;;;;;;16.50;12.50;;;;;18.15;62.59;101817.19;5108717;27;45469;-67
2023/10/01 01:25:10;;;;;;;;;16.00;13.00;;;;;18.12;62.52;101815.53;5121195;27;45500;-66
2023/10/01 01:27:36;;;;;;;;;15.00;13.25;;;;;18.09;62.30;101814.81;5118745;27;45390;-66
2023/10/01 01:30:07;;;;;;;;;18.25;13.25;;;;;18.06;62.85;101809.63;5121847;27;45773;-68
2023/10/01 01:32:33;;;;;;;;;14.25;9.25;;;;;18.05;62.66;101798.19;5117810;27;45472;-67
2023/10/01 01:35:02;;;;;;;;;17.25;14.25;;;;;18.04;62.73;101799.09;5120848;27;45512;-68
2023/10/01 01:37:36;;;;;;;;;15.00;11.75;;;;;18.04;62.44;101796.44;5118926;27;45383;-68
2023/10/01 01:40:09;;;;;;;;;17.75;10.00;;;;;18.02;62.76;101783.28;5120555;27;45283;-67
2023/10/01 01:42:34;;;;;;;;;14.75;9.25;;;;;18.02;62.68;101791.25;5120850;27;45367;-68
2023/10/01 01:47:44;;;;;;;;;18.00;15.00;;;;;18.01;62.82;101792.16;5106738;27;46020;-68
2023/10/01 01:50:18;;;;;;;;;10.75;7.25;;;;;17.99;62.91;101780.75;5122234;27;45403;-68
2023/10/01 01:52:49;;;;;;;;;17.50;12.25;;;;;17.98;63.44;101786.97;5109551;27;45407;-68
2023/10/01 01:55:26;;;;;;;;;17.50;13.00;;;;;17.96;63.12;101794.13;5120289;27;45279;-68
2023/10/01 01:58:08;;;;;;;;;16.25;10.00;;;;;17.95;63.12;101786.22;5101505;27;45444;-69
2023/10/01 02:00:37;;;;;;;;;13.50;11.50;;;;;17.88;63.00;101785.63;5116347;27;45386;-68
2023/10/01 02:03:10;;;;;;;;;21.25;14.00;;;;;17.91;63.10;101793.44;5109747;27;45345;-67
2023/10/01 02:05:36;;;;;;;;;21.50;13.50;;;;;17.90;63.24;101788.22;5106908;27;45508;-68
2023/10/01 02:08:06;;;;;;;;;17.00;13.00;;;;;17.90;63.28;101788.22;5119508;27;45484;-67
2023/10/01 02:10:44;;;;;;;;;14.50;11.25;;;;;17.90;63.35;101788.22;5114364;27;45224;-67
2023/10/01 02:13:13;;;;;;;;;21.50;15.50;;;;;17.89;63.30;101790.00;5104454;27;45271;-67
2023/10/01 02:15:38;;;;;;;;;14.75;12.50;;;;;17.88;63.38;101788.25;5121784;27;45255;-68
2023/10/01 02:18:04;;;;;;;;;22.25;15.00;;;;;17.87;63.30;101791.00;5110699;27;75219;-68
2023/10/01 02:20:33;;;;;;;;;15.75;11.75;;;;;17.85;63.43;101785.72;5103408;27;46373;-68
2023/10/01 02:23:02;;;;;;;;;18.50;11.00;;;;;17.85;63.42;101788.38;5106171;27;45255;-68
2023/10/01 02:25:37;;;;;;;;;16.50;12.75;;;;;17.84;63.87;101789.28;5108725;27;45486;-69
2023/10/01 02:28:11;;;;;;;;;17.50;12.50;;;;;17.78;63.82;101778.97;5121112;27;46068;-67
2023/10/01 02:30:36;;;;;;;;;13.75;11.75;;;;;17.80;63.85;101785.91;5120439;27;45484;-67
2023/10/01 02:33:20;;;;;;;;;13.00;10.75;;;;;17.81;63.72;101794.69;5119265;27;59419;-68
2023/10/01 02:35:49;;;;;;;;;15.00;13.00;;;;;17.79;64.00;101789.47;5119546;27;45554;-68
2023/10/01 02:41:02;;;;;;;;;15.75;13.00;;;;;17.80;63.97;101800.94;5108773;27;45911;-67
2023/10/01 02:43:33;;;;;;;;;19.00;12.75;;;;;17.75;63.89;101790.53;5121457;27;45294;-68
2023/10/01 02:46:04;;;;;;;;;20.25;12.75;;;;;17.76;63.95;101794.91;5120021;27;45621;-68
2023/10/01 02:48:30;;;;;;;;;16.50;12.75;;;;;17.75;63.91;101795.81;5108238;27;45361;-68
2023/10/01 02:50:56;;;;;;;;;21.50;13.00;;;;;17.73;63.90;101786.22;5105831;27;45851;-68
2023/10/01 02:53:22;;;;;;;;;15.00;13.25;;;;;17.72;63.74;101788.00;5108064;27;45405;-67
2023/10/01 02:55:51;;;;;;;;;17.25;12.50;;;;;17.71;63.88;101778.34;5100810;27;45469;-68
2023/10/01 02:58:26;;;;;;;;;22.75;13.00;;;;;17.69;64.12;101779.31;5112629;27;46140;-67
2023/10/01 03:00:53;;;;;;;;;14.25;12.75;;;;;17.69;64.37;101787.25;5110706;27;45247;-68
2023/10/01 03:03:18;;;;;;;;;14.75;11.50;;;;;17.65;64.04;101782.09;5117403;27;46465;-68
2023/10/01 03:05:46;;;;;;;;;13.50;11.00;;;;;17.65;64.08;101784.75;5109205;27;45295;-68
2023/10/01 03:08:40;;;;;;;;;13.25;11.75;;;;;17.63;64.07;101775.97;5106265;27;45427;-68
2023/10/01 03:11:02;;;;;;;;;15.25;12.75;;;;;17.63;64.36;101783.06;5099701;27;45766;-68
2023/10/01 03:13:30;;;;;;;;;15.50;10.50;;;;;17.60;64.26;101780.53;5114130;27;45338;-68
2023/10/01 03:18:44;;;;;;;;;21.25;15.00;;;;;17.59;64.58;101778.84;5111770;27;45716;-67
2023/10/01 03:21:19;;;;;;;;;16.50;14.25;;;;;17.55;64.60;101783.38;5103537;27;45279;-67
2023/10/01 03:23:53;;;;;;;;;16.50;12.00;;;;;17.54;64.66;101779.00;5118798;27;45380;-68
2023/10/01 03:26:18;;;;;;;;;23.00;14.25;;;;;17.51;64.82;101781.78;5112743;27;45575;-67
2023/10/01 03:31:29;;;;;;;;;14.75;11.00;;;;;17.48;65.19;101775.75;5119346;27;45348;-67
2023/10/01 03:33:54;;;;;;;;;15.50;9.75;;;;;17.47;65.00;101782.81;5118406;27;45440;-67
2023/10/01 03:36:28;;;;;;;;;17.25;14.00;;;;;17.46;65.07;101776.66;5118186;27;45433;-68
2023/10/01 03:39:24;;;;;;;;;14.25;10.50;;;;;17.45;65.14;101774.94;5117803;27;45370;-68
2023/10/01 03:41:57;;;;;;;;;19.50;14.25;;;;;17.43;65.28;101770.63;5114042;27;45440;-68
2023/10/01 03:44:59;;;;;;;;;14.25;12.25;;;;;17.33;65.19;101754.25;5120422;27;46371;-68
2023/10/01 03:47:08;;;;;;;;;19.25;12.75;;;;;17.40;65.17;101766.31;5118876;27;45271;-67
2023/10/01 03:49:43;;;;;;;;;19.00;12.00;;;;;17.40;65.33;101770.75;5100143;27;45917;-68
2023/10/01 03:52:09;;;;;;;;;17.25;12.25;;;;;17.39;65.38;101763.75;5115635;27;45806;-68
2023/10/01 03:57:18;;;;;;;;;17.50;13.50;;;;;17.36;65.60;101763.84;5117522;27;45448;-67
2023/10/01 03:59:54;;;;;;;;;16.75;12.25;;;;;17.34;65.70;101757.78;5113186;27;59968;-68
2023/10/01 04:05:21;;;;;;;;;20.50;13.00;;;;;17.30;65.51;101758.78;5115120;27;45445;-67
2023/10/01 04:07:47;;;;;;;;;21.25;12.25;;;;;17.31;65.39;101755.25;5115462;27;45511;-68
2023/10/01 04:10:19;;;;;;;;;17.75;12.50;;;;;17.27;65.72;101750.06;5108248;27;46435;-68
2023/10/01 04:12:49;;;;;;;;;16.50;12.25;;;;;17.27;66.00;101749.19;5123864;27;45398;-67
2023/10/01 04:15:27;;;;;;;;;15.00;11.00;;;;;17.26;65.40;101758.03;5109967;27;45385;-68
2023/10/01 04:18:09;;;;;;;;;17.50;13.50;;;;;17.24;65.73;101752.81;5122445;27;45539;-67
2023/10/01 04:20:36;;;;;;;;;17.75;13.50;;;;;17.20;65.85;101747.72;5104173;27;45454;-67
2023/10/01 04:23:04;;;;;;;;;22.00;15.25;;;;;17.21;66.06;101750.31;5104643;27;45896;-68
2023/10/01 04:25:39;;;;;;;;;15.00;15.00;;;;;17.20;65.84;101753.88;5108648;27;45242;-68
2023/10/01 04:28:08;;;;;;;;;17.50;11.25;;;;;17.15;66.10;101755.81;5119818;27;45283;-68
2023/10/01 04:30:34;;;;;;;;;14.50;12.00;;;;;17.15;66.28;101758.47;5105503;27;47072;-68
2023/10/01 04:33:16;;;;;;;;;14.75;10.50;;;;;17.12;66.08;101763.00;5123184;27;46159;-68
2023/10/01 04:35:51;;;;;;;;;18.00;11.75;;;;;17.10;66.08;101762.22;5117322;27;45330;-67
2023/10/01 04:38:22;;;;;;;;;17.50;13.75;;;;;17.11;66.17;101761.31;5123085;27;45487;-68
2023/10/01 04:40:51;;;;;;;;;11.75;10.25;;;;;17.09;66.26;101761.34;5119654;27;45454;-67
2023/10/01 04:43:19;;;;;;;;;18.00;14.75;;;;;17.09;66.20;101766.66;5122016;27;45542;-68
2023/10/01 04:45:45;;;;;;;;;17.25;10.25;;;;;17.08;66.07;101759.63;5123179;27;45369;-65
2023/10/01 04:48:22;;;;;;;;;15.00;11.00;;;;;17.06;66.11;101764.09;5113127;27;45213;-67
2023/10/01 04:50:49;;;;;;;;;18.50;14.75;;;;;17.05;66.29;101760.59;5107606;27;46186;-67
2023/10/01 04:53:20;;;;;;;;;14.00;11.00;;;;;17.05;66.55;101765.00;5104499;27;45275;-67
2023/10/01 04:55:57;;;;;;;;;16.00;12.25;;;;;17.05;66.40;101760.59;5123145;27;45583;-67
2023/10/01 04:58:23;;;;;;;;;18.50;15.75;;;;;17.04;66.48;101758.88;5120824;27;45237;-68
2023/10/01 05:00:49;;;;;;;;;14.25;12.25;;;;;17.04;66.34;101760.66;5108389;27;46470;-66
2023/10/01 05:03:15;;;;;;;;;12.50;11.25;;;;;17.01;66.42;101756.34;5102824;27;45279;-68
2023/10/01 05:05:44;;;;;;;;;20.25;13.00;;;;;17.01;66.37;101766.91;5101371;27;45343;-68
2023/10/01 05:08:13;;;;;;;;;20.50;14.00;;;;;17.02;66.34;101765.16;5117091;27;45565;-68
2023/10/01 05:10:51;;;;;;;;;16.75;10.00;;;;;17.01;66.47;101763.41;5120794;27;45392;-67
2023/10/01 05:13:22;;;;;;;;;15.75;14.00;;;;;17.01;66.60;101774.00;5122585;27;45874;-67
2023/10/01 05:15:56;;;;;;;;;15.75;14.75;;;;;16.99;66.39;101771.41;5103386;27;45272;-67
2023/10/01 05:18:27;;;;;;;;;16.75;13.00;;;;;16.96;66.49;101766.22;5115845;27;45551;-67
2023/10/01 05:20:58;;;;;;;;;15.00;12.75;;;;;16.95;66.35;101761.00;5101022;27;69388;-69
2023/10/01 05:23:27;;;;;;;;;16.25;13.00;;;;;16.96;66.78;101760.94;5118496;27;45394;-67
2023/10/01 05:25:52;;;;;;;;;20.75;13.25;;;;;16.95;66.81;101764.50;5118722;27;45321;-67
2023/10/01 05:28:31;;;;;;;;;17.50;13.25;;;;;16.96;66.84;101768.00;5103337;27;45287;-66
2023/10/01 05:30:58;;;;;;;;;19.00;12.50;;;;;16.93;66.83;101774.28;5100750;27;47171;-66
2023/10/01 05:33:24;;;;;;;;;14.50;13.25;;;;;16.92;66.43;101764.63;5111856;27;45520;-67
2023/10/01 05:35:54;;;;;;;;;17.25;12.00;;;;;16.93;66.84;101776.94;5120454;27;45510;-67
2023/10/01 05:38:20;;;;;;;;;17.00;10.75;;;;;16.90;66.96;101777.03;5111044;27;45288;-68
2023/10/01 05:40:52;;;;;;;;;16.75;14.25;;;;;16.91;67.08;101776.13;5117761;27;46445;-67
2023/10/01 05:43:18;;;;;;;;;23.00;13.75;;;;;16.90;66.96;101779.69;5110214;27;45515;-68
2023/10/01 05:45:50;;;;;;;;;10.50;8.75;;;;;16.91;66.83;101785.81;5101130;27;45387;-68
2023/10/01 05:48:19;;;;;;;;;18.75;12.00;;;;;16.88;67.15;101782.38;5111169;27;45422;-67
2023/10/01 05:50:45;;;;;;;;;33.00;14.75;;;;;16.87;67.21;101782.44;5121899;27;46097;-67
2023/10/01 05:53:10;;;;;;;;;14.75;11.25;;;;;16.87;67.12;101774.50;5122339;27;45419;-67
2023/10/01 05:55:38;;;;;;;;;18.25;12.75;;;;;16.89;67.19;101785.88;5122117;27;45203;-68
2023/10/01 05:58:13;;;;;;;;;10.75;10.00;;;;;16.87;67.02;101785.97;5110786;27;45326;-67
2023/10/01 06:00:53;;;;;;;;;11.25;8.75;;;;;16.87;67.39;101782.44;5106963;27;45408;-66
2023/10/01 06:03:19;;;;;;;;;19.50;15.50;;;;;16.88;67.22;101778.88;5103674;27;45881;-67
2023/10/01 06:05:57;;;;;;;;;20.75;12.00;;;;;16.89;67.12;101788.53;5118533;27;61754;-70
2023/10/01 06:08:26;;;;;;;;;21.00;17.00;;;;;16.89;67.27;101793.81;5107119;27;45269;-67
2023/10/01 06:11:05;;;;;;;;;17.25;12.75;;;;;16.89;67.25;101788.53;5120057;27;45453;-68
2023/10/01 06:13:31;;;;;;;;;21.00;15.00;;;;;16.87;67.37;101793.88;5120833;27;45790;-66
2023/10/01 06:15:58;;;;;;;;;16.25;13.75;;;;;16.91;67.29;101793.75;5117000;27;45310;-69
2023/10/01 06:18:24;;;;;;;;;12.75;9.50;;;;;16.89;66.98;101788.53;5103745;27;45323;-68
2023/10/01 06:20:50;;;;;;;;;19.75;14.75;;;;;16.88;67.38;101782.38;5130369;27;46828;-68
2023/10/01 06:23:16;;;;;;;;;16.25;12.50;;;;;16.90;67.46;101795.53;5104751;27;45287;-68
2023/10/01 06:25:41;;;;;;;;;14.00;12.50;;;;;16.91;67.29;101799.03;5106943;27;45497;-68
2023/10/01 06:28:09;;;;;;;;;17.50;12.00;;;;;16.91;67.29;101794.63;5111812;27;72059;-68
2023/10/01 06:30:35;;;;;;;;;17.50;11.50;;;;;16.93;67.31;101797.19;5114338;27;45310;-68
2023/10/01 06:33:00;;;;;;;;;17.00;13.75;;;;;16.94;67.29;101798.94;5119867;27;45400;-68
2023/10/01 06:35:26;;;;;;;;;12.50;12.25;;;;;16.96;67.38;101794.44;5120707;27;58745;-69
2023/10/01 06:37:53;;;;;;;;;16.75;14.50;;;;;16.97;67.32;101785.63;5120374;27;45372;-67
2023/10/01 06:40:30;;;;;;;;;17.00;13.75;;;;;16.98;67.46;101787.31;5118858;27;45429;-67
2023/10/01 06:42:58;;;;;;;;;18.75;15.00;;;;;17.01;67.41;101787.22;5121322;27;45788;-66
2023/10/01 06:45:38;;;;;;;;;11.50;9.25;;;;;17.04;67.52;101787.09;5108152;27;45325;-66
2023/10/01 06:48:14;;;;;;;;;15.25;13.00;;;;;17.04;67.50;101777.38;5112156;27;45431;-66
2023/10/01 06:50:39;;;;;;;;;21.50;14.75;;;;;17.08;67.32;101781.63;5114194;27;46086;-67
2023/10/01 06:53:09;;;;;;;;;20.00;13.25;;;;;17.04;67.56;101780.03;5109921;27;45308;-66
2023/10/01 06:55:36;;;;;;;;;17.50;13.25;;;;;17.10;67.12;101778.94;5114287;27;45473;-67
2023/10/01 06:58:06;;;;;;;;;17.50;14.50;;;;;17.12;67.04;101785.03;5108865;27;45208;-66
2023/10/01 07:00:35;;;;;;;;;16.25;13.00;;;;;17.12;67.47;101786.81;5103450;27;46141;-66
2023/10/01 07:03:17;;;;;;;;;16.50;16.25;;;;;17.14;67.28;101779.69;5102278;27;45260;-67
2023/10/01 07:05:47;;;;;;;;;21.00;14.75;;;;;17.14;67.60;101780.56;5111063;27;45427;-66
2023/10/01 07:08:16;;;;;;;;;18.75;13.75;;;;;17.15;67.09;101779.63;5088016;27;45467;-66
2023/10/01 07:10:42;;;;;;;;;13.00;10.25;;;;;17.20;67.20;101787.41;5112149;27;45463;-67
2023/10/01 07:13:08;;;;;;;;;17.75;12.25;;;;;17.20;67.04;101780.31;5120530;27;45270;-67
2023/10/01 07:15:40;;;;;;;;;15.75;14.00;;;;;17.24;66.99;101781.06;5112261;27;45503;-67
2023/10/01 07:18:15;;;;;;;;;18.25;13.25;;;;;17.30;67.17;101785.25;5102879;27;45470;-66
2023/10/01 07:20:44;;;;;;;;;17.25;12.75;;;;;17.32;67.12;101789.56;5108735;27;45429;-67
2023/10/01 07:23:13;;;;;;;;;13.75;10.75;;;;;17.34;66.93;101779.78;5104282;27;45713;-66
2023/10/01 07:25:39;;;;;;;;;17.50;12.75;;;;;17.33;67.00;101769.25;5091763;27;45184;-66
2023/10/01 07:28:12;;;;;;;;;16.00;13.75;;;;;17.42;66.78;101787.41;5112471;27;45230;-67
2023/10/01 07:30:51;;;;;;;;;16.50;14.00;;;;;17.47;66.64;101793.41;5111390;27;45421;-66
2023/10/01 07:33:17;;;;;;;;;14.00;10.75;;;;;17.52;67.03;101793.22;5122918;27;45356;-68
2023/10/01 07:35:44;;;;;;;;;15.00;12.00;;;;;17.54;67.14;101786.94;5111386;27;45540;-67
2023/10/01 07:38:13;;;;;;;;;18.75;14.25;;;;;17.56;66.77;101793.03;5085277;27;45359;-68
2023/10/01 07:40:58;;;;;;;;;20.00;14.25;;;;;17.61;66.94;101791.06;5110076;27;46093;-68
2023/10/01 07:43:30;;;;;;;;;21.00;14.75;;;;;17.65;66.62;101798.00;5122840;27;45806;-67
2023/10/01 07:45:57;;;;;;;;;20.75;14.25;;;;;17.68;66.62;101788.19;5123206;27;45224;-67
2023/10/01 07:48:23;;;;;;;;;18.50;17.25;;;;;17.71;66.81;101793.38;5124205;27;45370;-67
2023/10/01 07:50:52;;;;;;;;;18.25;17.75;;;;;17.77;66.41;101798.41;5108785;27;45494;-67
2023/10/01 07:53:18;;;;;;;;;19.00;16.50;;;;;17.82;66.35;101799.94;5122432;27;45977;-67
2023/10/01 07:55:47;;;;;;;;;20.50;16.00;;;;;17.87;66.46;101807.75;5118641;27;45446;-67
2023/10/01 07:58:44;;;;;;;;;18.75;15.25;;;;;17.92;66.11;101812.84;5112324;27;45211;-66
2023/10/01 08:03:56;;;;;;;;;21.75;15.75;;;;;18.02;66.07;101811.53;5119215;27;45275;-67
2023/10/01 08:06:34;;;;;;;;;19.25;16.25;;;;;18.07;65.92;101811.38;5109534;27;45378;-67
2023/10/01 08:09:00;;;;;;;;;20.50;14.00;;;;;18.10;65.73;101804.16;5090877;27;45355;-66
2023/10/01 08:14:11;;;;;;;;;18.00;13.00;;;;;18.16;65.62;101805.69;5121668;27;45853;-67
2023/10/01 08:16:48;;;;;;;;;17.50;13.25;;;;;18.21;65.43;101809.00;5116118;27;45381;-67
2023/10/01 08:19:15;;;;;;;;;19.00;15.50;;;;;18.28;65.70;101814.91;5114989;27;45730;-69
2023/10/01 08:21:48;;;;;;;;;23.00;17.25;;;;;18.31;65.73;101810.34;5100999;27;47688;-69
2023/10/01 08:24:18;;;;;;;;;17.25;12.50;;;;;18.33;65.45;101805.84;5111000;27;45780;-71
2023/10/01 08:27:03;;;;;;;;;21.00;17.00;;;;;18.39;65.33;101807.34;5119942;27;45465;-73
2023/10/01 08:29:28;;;;;;;;;20.75;15.75;;;;;18.47;64.80;101817.63;5120789;27;45456;-67
2023/10/01 08:34:23;;;;;;;;;22.75;17.25;;;;;18.55;64.85;101819.00;5115111;27;45886;-69
2023/10/01 08:36:55;;;;;;;;;24.00;20.00;;;;;18.60;64.87;101819.69;5121893;27;45469;-69
2023/10/01 08:39:33;;;;;;;;;25.75;19.75;;;;;18.66;64.40;101823.00;5119958;27;45359;-69
2023/10/01 08:42:08;;;;;;;;;23.75;18.00;;;;;18.73;64.78;101827.09;5105385;27;45265;-70
2023/10/01 08:44:54;;;;;;;;;21.75;17.75;;;;;18.83;64.31;101824.94;5104389;27;45267;-68
2023/10/01 08:47:35;;;;;;;;;24.75;21.00;;;;;18.89;64.08;101824.66;5118561;27;45275;-68
2023/10/01 08:53:01;;;;;;;;;35.50;29.75;;;;;19.05;63.67;101823.06;5109230;27;45797;-68
2023/10/01 08:58:15;;;;;;;;;24.50;18.00;;;;;19.16;63.43;101810.16;5120941;27;45492;-68
2023/10/01 09:00:56;;;;;;;;;18.75;18.75;;;;;19.28;63.21;101808.75;5119558;27;46274;-68
2023/10/01 09:03:26;;;;;;;;;19.50;18.00;;;;;19.38;63.51;101814.47;5120165;27;47032;-68
2023/10/01 09:06:06;;;;;;;;;20.50;14.75;;;;;19.45;63.29;101805.28;5116482;27;45311;-68
2023/10/01 09:08:43;;;;;;;;;20.25;14.25;;;;;19.53;62.95;101818.22;5114409;27;45529;-68
2023/10/01 09:11:14;;;;;;;;;19.25;14.00;;;;;19.61;62.90;101813.38;5112152;27;45657;-68
2023/10/01 09:13:58;;;;;;;;;18.50;14.75;;;;;19.68;62.68;101816.63;5119495;27;46097;-68
2023/10/01 09:16:32;;;;;;;;;23.25;15.25;;;;;19.76;62.39;101816.25;5116545;27;45775;-67
2023/10/01 09:19:29;;;;;;;;;18.50;14.50;;;;;19.85;62.06;101818.50;5095475;27;45457;-67
2023/10/01 09:21:51;;;;;;;;;15.75;12.50;;;;;19.94;62.34;101823.34;5123404;27;45293;-67
2023/10/01 09:24:39;;;;;;;;;15.25;11.00;;;;;20.01;61.92;101816.81;5103450;27;46895;-67
2023/10/01 09:27:34;;;;;;;;;15.00;12.25;;;;;20.11;61.64;101809.22;5112824;27;45827;-67
2023/10/01 09:32:54;;;;;;;;;17.00;12.50;;;;;20.29;61.58;101808.31;5115299;27;45357;-67
2023/10/01 09:35:38;;;;;;;;;18.00;13.25;;;;;20.39;61.04;101808.69;5113397;27;45284;-67
2023/10/01 09:38:11;;;;;;;;;21.75;12.50;;;;;20.51;60.83;101811.66;5107716;27;45827;-67
2023/10/01 09:40:51;;;;;;;;;16.00;13.50;;;;;20.59;60.82;101809.44;5120143;27;45466;-66
2023/10/01 09:43:24;;;;;;;;;14.50;13.50;;;;;20.68;60.65;101811.66;5116931;27;45402;-68
2023/10/01 09:45:51;;;;;;;;;15.25;11.00;;;;;20.76;60.23;101804.16;5120909;27;45503;-67
2023/10/01 09:48:30;;;;;;;;;15.75;9.75;;;;;20.88;60.42;101813.28;5121236;27;45442;-69
2023/10/01 09:51:13;;;;;;;;;16.00;13.00;;;;;20.97;59.96;101810.13;5118301;27;45417;-67
2023/10/01 09:53:44;;;;;;;;;22.75;13.00;;;;;21.08;59.83;101804.22;5115032;27;45370;-68
2023/10/01 09:57:08;;;;;;;;;14.25;12.50;;;;;21.18;59.74;101800.13;5119614;27;46373;-67
2023/10/01 09:59:11;;;;;;;;;14.25;11.25;;;;;21.28;59.26;101794.28;5116772;27;45516;-68
2023/10/01 10:01:40;;;;;;;;;12.75;11.00;;;;;21.35;59.54;101796.50;5118249;27;45226;-68
2023/10/01 10:04:10;;;;;;;;;13.75;10.75;;;;;21.45;59.49;101799.53;5116874;27;45226;-68
2023/10/01 10:06:38;;;;;;;;;13.25;10.50;;;;;21.53;58.60;101800.00;5115800;27;45444;-68
2023/10/01 10:09:04;;;;;;;;;15.25;13.00;;;;;21.56;59.04;101789.16;5121496;27;45654;-68
2023/10/01 10:11:30;;;;;;;;;14.25;12.25;;;;;21.65;58.35;101794.91;5118691;27;45358;-68
2023/10/01 10:14:00;;;;;;;;;18.75;12.50;;;;;21.71;58.46;101798.09;5107728;27;45422;-68
2023/10/01 10:16:30;;;;;;;;;13.75;10.50;;;;;21.77;58.21;101794.22;5116998;27;45398;-68
2023/10/01 10:19:47;;;;;;;;;15.50;12.50;;;;;21.86;58.21;101795.50;5109624;27;45757;-67
2023/10/01 10:24:34;;;;;;;;;16.25;12.75;;;;;22.05;58.02;101800.63;5100853;27;45318;-68
2023/10/01 10:27:07;;;;;;;;;12.00;9.25;;;;;22.11;57.79;101789.59;5089330;27;47102;-68
2023/10/01 10:29:56;;;;;;;;;17.50;13.50;;;;;22.19;57.86;101787.34;5135335;27;45261;-68
2023/10/01 10:32:26;;;;;;;;;15.25;10.00;;;;;22.25;57.18;101786.97;5107405;27;45385;-67
2023/10/01 10:35:03;;;;;;;;;19.25;13.25;;;;;22.33;57.61;101782.06;5100723;27;45438;-68
2023/10/01 10:37:35;;;;;;;;;9.50;8.75;;;;;22.40;57.58;101774.56;5100409;27;47320;-67
2023/10/01 10:40:14;;;;;;;;;15.75;9.00;;;;;22.45;56.98;101775.16;5101600;27;45668;-68
2023/10/01 10:42:40;;;;;;;;;16.25;9.50;;;;;22.48;56.95;101763.41;5121254;27;45297;-67
2023/10/01 10:45:23;;;;;;;;;15.50;10.00;;;;;22.55;56.50;101764.75;5110090;27;45496;-67
2023/10/01 10:47:59;;;;;;;;;13.00;9.00;;;;;22.61;56.47;101766.19;5107911;27;47529;-67
2023/10/01 10:50:50;;;;;;;;;14.50;9.50;;;;;22.67;56.48;101758.66;5110594;27;45739;-67
2023/10/01 10:53:22;;;;;;;;;16.50;12.00;;;;;22.74;56.46;101761.81;5109406;27;45218;-67
2023/10/01 10:56:10;;;;;;;;;13.00;11.50;;;;;22.81;56.26;101760.50;5100692;27;45361;-66
2023/10/01 10:58:46;;;;;;;;;12.75;9.75;;;;;22.87;56.06;101764.56;5099133;27;48064;-67
2023/10/01 11:01:16;;;;;;;;;12.00;8.75;;;;;22.91;56.28;101756.28;5082338;27;45736;-67
2023/10/01 11:03:59;;;;;;;;;15.75;12.75;;;;;22.96;55.85;101758.66;5115294;27;45485;-67
2023/10/01 11:06:39;;;;;;;;;13.50;10.00;;;;;23.01;55.89;101755.72;5103095;27;45366;-67
2023/10/01 11:09:22;;;;;;;;;18.25;12.00;;;;;23.07;55.89;101752.66;5118969;27;47136;-67
2023/10/01 11:11:47;;;;;;;;;14.00;10.50;;;;;23.12;55.08;101756.78;5111909;27;45235;-70
2023/10/01 11:14:16;;;;;;;;;13.25;11.00;;;;;23.16;55.27;101745.88;5102580;27;45309;-68
2023/10/01 11:16:44;;;;;;;;;14.75;9.75;;;;;23.21;54.96;101746.44;5119363;27;45364;-69
2023/10/01 11:19:13;;;;;;;;;13.50;9.00;;;;;23.25;55.16;101748.84;5100957;27;47477;-70
2023/10/01 11:22:00;;;;;;;;;22.25;10.50;;;;;23.32;55.01;101751.97;5121437;27;45311;-69
2023/10/01 11:24:34;;;;;;;;;9.00;6.50;;;;;23.38;54.38;101745.38;5113723;27;45375;-66
2023/10/01 11:27:17;;;;;;;;;7.75;5.50;;;;;23.44;54.45;101743.16;5123098;27;45287;-66
2023/10/01 11:30:24;;;;;;;;;11.25;10.50;;;;;23.50;54.04;101742.75;5112022;27;47969;-66
2023/10/01 11:35:32;;;;;;;;;9.50;7.75;;;;;23.61;53.39;101735.84;5119984;27;45306;-67
2023/10/01 11:38:09;;;;;;;;;10.00;7.50;;;;;23.65;54.02;101732.84;5114183;27;45378;-68
2023/10/01 11:44:20;;;;;;;;;11.25;8.75;;;;;23.77;53.73;101720.50;5121711;27;45424;-68
2023/10/01 11:46:24;;;;;;;;;14.75;10.00;;;;;23.86;53.60;101724.38;5101359;27;45588;-70
2023/10/01 11:48:59;;;;;;;;;12.75;7.75;;;;;23.87;53.39;101710.94;5104683;27;45551;-69
2023/10/01 11:51:30;;;;;;;;;11.00;6.75;;;;;23.95;53.54;101715.75;5107584;27;45535;-68
2023/10/01 11:53:57;;;;;;;;;13.25;8.50;;;;;23.98;53.11;101710.19;5113268;27;45454;-70
2023/10/01 11:56:23;;;;;;;;;11.50;7.50;;;;;24.02;53.13;101714.34;5101137;27;45468;-71
2023/10/01 11:58:48;;;;;;;;;10.50;8.25;;;;;24.11;52.95;101717.38;5131115;27;45436;-70
2023/10/01 12:01:13;;;;;;;;;7.75;6.75;;;;;24.15;50.25;101724.22;5125313;27;75768;-68
2023/10/01 12:03:39;;;;;;;;;8.25;5.50;;;;;24.18;51.14;101721.34;5117450;27;62902;-68
2023/10/01 12:06:04;;;;;;;;;10.00;6.75;;;;;24.21;52.61;101713.13;5125926;27;70920;-70
2023/10/01 12:08:36;;;;;;;;;9.25;5.75;;;;;24.23;52.42;101708.50;5117836;27;45398;-69
2023/10/01 12:12:03;;;;;;;;;9.75;5.25;;;;;24.25;52.34;101704.75;5108102;27;45360;-70